Terminal Aerodrome Forecast
Issued by NWS

Current Version | Previous Version | Text Only | Print | Product List | Glossary On
Versions: 1 2 3 4 5 6 7 8 9 10 11 12 13 14 15 16 17 18 19 20 21 22 23 24 25 26 27 28 29 30 31 32 33 34 35 36 37 38 39 40 41 42 43 44 45 46 47 48 49 50
000
FTUS44 KHGX 231459 AAA
TAFIAH
TAF AMD
KIAH 231459Z 2315/2418 36005KT P6SM SCT016
      TEMPO 2315/2316 BKN016
     FM231600 36006KT P6SM SCT035
     FM232100 33006KT P6SM VCSH BKN035 BKN050
     FM240100 34007KT 6SM -TSRA OVC035CB
     FM240300 34009KT P6SM FEW020 SCT050=

USA.gov is the U.S. government's official web portal to all federal, state and local government web resources and services.